Eldon, Iowa
Current Conditions -  °F | °C
As of 6:35 PM on Saturday 25 Oct 2014 (Local Time) from KFFL Reporting Station
Clear Clear  
Wind Chill: 61°   Ceiling: Unl
Heat Index: 61°   Visibility: NA
Dew Point: 37°   Wind: 7mph
Humidity: 42%   Direction: 350°N
Pressure: 30.04"   Gusts: NA
Location:  40.92°N, 92.22°W
Report Text: KFFL 252335Z AUTO 35006KT CLR 16/03 A3004 RMK AO2
Loading
Personal Weather Stations






























Interactive Weather Map
Tropical Storm Tracking
New forecast layout! Learn more

10-Day Weather Forecast

Advertisements
Track Severe Weather on mobile